sensor_id;sensor_type;location;lat;lon;timestamp;temperature;humidity
4056;DHT22;2043;52.184;8.690;2023-10-13T00:01:48;16.50;99.90
4056;DHT22;2043;52.184;8.690;2023-10-13T00:04:15;16.60;99.90
4056;DHT22;2043;52.184;8.690;2023-10-13T00:06:42;16.60;99.90
4056;DHT22;2043;52.184;8.690;2023-10-13T00:09:09;16.60;99.90
4056;DHT22;2043;52.184;8.690;2023-10-13T00:11:42;16.60;99.90
4056;DHT22;2043;52.184;8.690;2023-10-13T00:14:12;16.60;99.90
4056;DHT22;2043;52.184;8.690;2023-10-13T00:16:44;16.50;99.90
4056;DHT22;2043;52.184;8.690;2023-10-13T00:19:31;16.60;99.90
4056;DHT22;2043;52.184;8.690;2023-10-13T00:22:06;16.50;99.90
4056;DHT22;2043;52.184;8.690;2023-10-13T00:24:38;16.50;99.90
4056;DHT22;2043;52.184;8.690;2023-10-13T00:27:15;16.50;99.90
4056;DHT22;2043;52.184;8.690;2023-10-13T00:29:58;16.50;99.90
4056;DHT22;2043;52.184;8.690;2023-10-13T00:32:45;16.50;99.90
4056;DHT22;2043;52.184;8.690;2023-10-13T00:35:17;16.50;99.90
4056;DHT22;2043;52.184;8.690;2023-10-13T00:38:04;16.40;99.90
4056;DHT22;2043;52.184;8.690;2023-10-13T00:40:40;16.40;99.90
4056;DHT22;2043;52.184;8.690;2023-10-13T00:43:07;16.50;99.90
4056;DHT22;2043;52.184;8.690;2023-10-13T00:45:55;16.50;99.90
4056;DHT22;2043;52.184;8.690;2023-10-13T00:48:37;16.50;99.90
4056;DHT22;2043;52.184;8.690;2023-10-13T00:51:12;16.50;99.90
4056;DHT22;2043;52.184;8.690;2023-10-13T00:54:05;16.60;99.90
4056;DHT22;2043;52.184;8.690;2023-10-13T00:56:40;16.60;99.90
4056;DHT22;2043;52.184;8.690;2023-10-13T00:59:16;16.50;99.90
4056;DHT22;2043;52.184;8.690;2023-10-13T01:01:43;16.70;99.90
4056;DHT22;2043;52.184;8.690;2023-10-13T01:04:11;16.60;99.90
4056;DHT22;2043;52.184;8.690;2023-10-13T01:06:39;16.60;99.90
4056;DHT22;2043;52.184;8.690;2023-10-13T01:09:08;16.70;99.90
4056;DHT22;2043;52.184;8.690;2023-10-13T01:11:47;16.70;99.90
4056;DHT22;2043;52.184;8.690;2023-10-13T01:14:21;16.60;99.90
4056;DHT22;2043;52.184;8.690;2023-10-13T01:16:50;16.60;99.90
4056;DHT22;2043;52.184;8.690;2023-10-13T01:19:20;16.70;99.90
4056;DHT22;2043;52.184;8.690;2023-10-13T01:21:52;16.70;99.90
4056;DHT22;2043;52.184;8.690;2023-10-13T01:24:29;16.70;99.90
4056;DHT22;2043;52.184;8.690;2023-10-13T01:27:05;16.70;99.90
4056;DHT22;2043;52.184;8.690;2023-10-13T01:29:47;16.70;99.90
4056;DHT22;2043;52.184;8.690;2023-10-13T01:32:18;16.70;99.90
4056;DHT22;2043;52.184;8.690;2023-10-13T01:34:45;16.70;99.90
4056;DHT22;2043;52.184;8.690;2023-10-13T01:37:13;16.70;99.90
4056;DHT22;2043;52.184;8.690;2023-10-13T01:39:42;16.80;99.90
4056;DHT22;2043;52.184;8.690;2023-10-13T01:42:13;16.80;99.90
4056;DHT22;2043;52.184;8.690;2023-10-13T01:44:48;16.80;99.90
4056;DHT22;2043;52.184;8.690;2023-10-13T01:47:15;16.70;99.90
4056;DHT22;2043;52.184;8.690;2023-10-13T01:49:44;16.70;99.90
4056;DHT22;2043;52.184;8.690;2023-10-13T01:52:15;16.70;99.90
4056;DHT22;2043;52.184;8.690;2023-10-13T01:54:43;16.70;99.90
4056;DHT22;2043;52.184;8.690;2023-10-13T01:57:12;16.70;99.90
4056;DHT22;2043;52.184;8.690;2023-10-13T01:59:46;16.80;99.90
4056;DHT22;2043;52.184;8.690;2023-10-13T02:02:15;16.80;99.90
4056;DHT22;2043;52.184;8.690;2023-10-13T02:04:46;16.70;99.90
4056;DHT22;2043;52.184;8.690;2023-10-13T02:07:16;16.70;99.90
4056;DHT22;2043;52.184;8.690;2023-10-13T02:09:43;16.70;99.90
4056;DHT22;2043;52.184;8.690;2023-10-13T02:12:10;16.70;99.90
4056;DHT22;2043;52.184;8.690;2023-10-13T02:14:38;16.70;99.90
4056;DHT22;2043;52.184;8.690;2023-10-13T02:17:05;16.70;99.90
4056;DHT22;2043;52.184;8.690;2023-10-13T02:19:40;16.70;99.90
4056;DHT22;2043;52.184;8.690;2023-10-13T02:22:12;16.70;99.90
4056;DHT22;2043;52.184;8.690;2023-10-13T02:24:50;16.70;99.90
4056;DHT22;2043;52.184;8.690;2023-10-13T02:29:50;16.70;99.90
4056;DHT22;2043;52.184;8.690;2023-10-13T02:32:17;16.80;99.90
4056;DHT22;2043;52.184;8.690;2023-10-13T02:34:47;16.70;99.90
4056;DHT22;2043;52.184;8.690;2023-10-13T02:37:14;16.70;99.90
4056;DHT22;2043;52.184;8.690;2023-10-13T02:39:41;16.70;99.90
4056;DHT22;2043;52.184;8.690;2023-10-13T02:42:08;16.80;99.90
4056;DHT22;2043;52.184;8.690;2023-10-13T02:44:51;16.80;99.90
4056;DHT22;2043;52.184;8.690;2023-10-13T02:47:22;16.70;99.90
4056;DHT22;2043;52.184;8.690;2023-10-13T02:49:51;16.70;99.90
4056;DHT22;2043;52.184;8.690;2023-10-13T02:52:18;16.70;99.90
4056;DHT22;2043;52.184;8.690;2023-10-13T02:54:45;16.70;99.90
4056;DHT22;2043;52.184;8.690;2023-10-13T02:57:17;16.60;99.90
4056;DHT22;2043;52.184;8.690;2023-10-13T02:59:45;16.70;99.90
4056;DHT22;2043;52.184;8.690;2023-10-13T03:02:16;16.80;99.90
4056;DHT22;2043;52.184;8.690;2023-10-13T03:04:58;16.70;99.90
4056;DHT22;2043;52.184;8.690;2023-10-13T03:07:36;16.70;99.90
4056;DHT22;2043;52.184;8.690;2023-10-13T03:10:04;16.70;99.90
4056;DHT22;2043;52.184;8.690;2023-10-13T03:12:38;16.70;99.90
4056;DHT22;2043;52.184;8.690;2023-10-13T03:15:07;16.70;99.90
4056;DHT22;2043;52.184;8.690;2023-10-13T03:17:48;16.70;99.90
4056;DHT22;2043;52.184;8.690;2023-10-13T03:20:16;16.70;99.90
4056;DHT22;2043;52.184;8.690;2023-10-13T03:22:48;16.70;99.90
4056;DHT22;2043;52.184;8.690;2023-10-13T03:25:18;16.80;99.90
4056;DHT22;2043;52.184;8.690;2023-10-13T03:27:51;16.80;99.90
4056;DHT22;2043;52.184;8.690;2023-10-13T03:30:19;16.70;99.90
4056;DHT22;2043;52.184;8.690;2023-10-13T03:32:48;16.80;99.90
4056;DHT22;2043;52.184;8.690;2023-10-13T03:35:20;16.80;99.90
4056;DHT22;2043;52.184;8.690;2023-10-13T03:38:04;16.80;99.90
4056;DHT22;2043;52.184;8.690;2023-10-13T03:40:52;16.80;99.90
4056;DHT22;2043;52.184;8.690;2023-10-13T03:43:34;16.80;99.90
4056;DHT22;2043;52.184;8.690;2023-10-13T03:46:12;16.80;99.90
4056;DHT22;2043;52.184;8.690;2023-10-13T03:48:39;16.90;99.90
4056;DHT22;2043;52.184;8.690;2023-10-13T03:51:19;16.80;99.90
4056;DHT22;2043;52.184;8.690;2023-10-13T03:53:46;16.80;99.90
4056;DHT22;2043;52.184;8.690;2023-10-13T03:56:21;16.80;99.90
4056;DHT22;2043;52.184;8.690;2023-10-13T03:58:58;16.80;99.90
4056;DHT22;2043;52.184;8.690;2023-10-13T04:01:33;16.80;99.90
4056;DHT22;2043;52.184;8.690;2023-10-13T04:04:14;16.80;99.90
4056;DHT22;2043;52.184;8.690;2023-10-13T04:07:01;16.70;99.90
4056;DHT22;2043;52.184;8.690;2023-10-13T04:09:31;16.70;99.90
4056;DHT22;2043;52.184;8.690;2023-10-13T04:12:06;16.70;99.90
4056;DHT22;2043;52.184;8.690;2023-10-13T04:14:41;16.80;99.90
4056;DHT22;2043;52.184;8.690;2023-10-13T04:17:08;16.90;99.90
4056;DHT22;2043;52.184;8.690;2023-10-13T04:19:44;16.80;99.90
4056;DHT22;2043;52.184;8.690;2023-10-13T04:22:29;16.80;99.90
4056;DHT22;2043;52.184;8.690;2023-10-13T04:25:24;16.80;99.90
4056;DHT22;2043;52.184;8.690;2023-10-13T04:28:03;16.80;99.90
4056;DHT22;2043;52.184;8.690;2023-10-13T04:30:44;16.80;99.90
4056;DHT22;2043;52.184;8.690;2023-10-13T04:33:29;16.70;99.90
4056;DHT22;2043;52.184;8.690;2023-10-13T04:36:21;16.80;99.90
4056;DHT22;2043;52.184;8.690;2023-10-13T04:39:03;16.80;99.90
4056;DHT22;2043;52.184;8.690;2023-10-13T04:44:21;16.90;99.90
4056;DHT22;2043;52.184;8.690;2023-10-13T04:46:58;16.90;99.90
4056;DHT22;2043;52.184;8.690;2023-10-13T04:49:39;16.80;99.90
4056;DHT22;2043;52.184;8.690;2023-10-13T04:52:09;16.80;99.90
4056;DHT22;2043;52.184;8.690;2023-10-13T04:54:41;16.90;99.90
4056;DHT22;2043;52.184;8.690;2023-10-13T04:57:21;16.90;99.90
4056;DHT22;2043;52.184;8.690;2023-10-13T04:59:49;16.80;99.90
4056;DHT22;2043;52.184;8.690;2023-10-13T05:02:36;16.80;99.90
4056;DHT22;2043;52.184;8.690;2023-10-13T05:05:04;16.80;99.90
4056;DHT22;2043;52.184;8.690;2023-10-13T05:07:41;16.80;99.90
4056;DHT22;2043;52.184;8.690;2023-10-13T05:10:27;16.70;99.90
4056;DHT22;2043;52.184;8.690;2023-10-13T05:13:13;16.70;99.90
4056;DHT22;2043;52.184;8.690;2023-10-13T05:15:58;16.80;99.90
4056;DHT22;2043;52.184;8.690;2023-10-13T05:18:44;16.80;99.90
4056;DHT22;2043;52.184;8.690;2023-10-13T05:21:29;16.70;99.90
4056;DHT22;2043;52.184;8.690;2023-10-13T05:24:15;16.80;99.90
4056;DHT22;2043;52.184;8.690;2023-10-13T05:27:00;16.80;99.90
4056;DHT22;2043;52.184;8.690;2023-10-13T05:29:46;16.80;99.90
4056;DHT22;2043;52.184;8.690;2023-10-13T05:32:32;16.70;99.90
4056;DHT22;2043;52.184;8.690;2023-10-13T05:35:21;16.70;99.90
4056;DHT22;2043;52.184;8.690;2023-10-13T05:38:07;16.70;99.90
4056;DHT22;2043;52.184;8.690;2023-10-13T05:41:00;16.70;99.90
4056;DHT22;2043;52.184;8.690;2023-10-13T05:43:51;16.70;99.90
4056;DHT22;2043;52.184;8.690;2023-10-13T05:46:36;16.70;99.90
4056;DHT22;2043;52.184;8.690;2023-10-13T05:49:08;16.70;99.90
4056;DHT22;2043;52.184;8.690;2023-10-13T05:51:35;16.70;99.90
4056;DHT22;2043;52.184;8.690;2023-10-13T05:54:03;16.70;99.90
4056;DHT22;2043;52.184;8.690;2023-10-13T05:59:34;16.70;99.90
4056;DHT22;2043;52.184;8.690;2023-10-13T06:02:20;16.70;99.90
4056;DHT22;2043;52.184;8.690;2023-10-13T06:05:08;16.60;99.90
4056;DHT22;2043;52.184;8.690;2023-10-13T06:07:54;16.70;99.90
4056;DHT22;2043;52.184;8.690;2023-10-13T06:10:40;16.60;99.90
4056;DHT22;2043;52.184;8.690;2023-10-13T06:13:27;16.70;99.90
4056;DHT22;2043;52.184;8.690;2023-10-13T06:16:14;16.60;99.90
4056;DHT22;2043;52.184;8.690;2023-10-13T06:19:00;16.60;99.90
4056;DHT22;2043;52.184;8.690;2023-10-13T06:21:46;16.70;99.90
4056;DHT22;2043;52.184;8.690;2023-10-13T06:24:32;16.70;99.90
4056;DHT22;2043;52.184;8.690;2023-10-13T06:27:17;16.60;99.90
4056;DHT22;2043;52.184;8.690;2023-10-13T06:30:03;16.70;99.90
4056;DHT22;2043;52.184;8.690;2023-10-13T06:32:33;16.60;99.90
4056;DHT22;2043;52.184;8.690;2023-10-13T06:35:00;16.70;99.90
4056;DHT22;2043;52.184;8.690;2023-10-13T06:37:34;16.70;99.90
4056;DHT22;2043;52.184;8.690;2023-10-13T06:40:09;16.70;99.90
4056;DHT22;2043;52.184;8.690;2023-10-13T06:42:49;16.70;99.90
4056;DHT22;2043;52.184;8.690;2023-10-13T06:45:16;16.80;99.90
4056;DHT22;2043;52.184;8.690;2023-10-13T06:47:47;16.90;99.90
4056;DHT22;2043;52.184;8.690;2023-10-13T06:50:19;16.90;99.90
4056;DHT22;2043;52.184;8.690;2023-10-13T06:52:46;16.90;99.90
4056;DHT22;2043;52.184;8.690;2023-10-13T06:55:17;17.10;99.90
4056;DHT22;2043;52.184;8.690;2023-10-13T06:57:44;17.10;99.90
4056;DHT22;2043;52.184;8.690;2023-10-13T07:00:13;17.10;99.90
4056;DHT22;2043;52.184;8.690;2023-10-13T07:02:46;17.20;99.90
4056;DHT22;2043;52.184;8.690;2023-10-13T07:05:13;17.20;99.90
4056;DHT22;2043;52.184;8.690;2023-10-13T07:07:41;17.20;99.90
4056;DHT22;2043;52.184;8.690;2023-10-13T07:10:11;17.20;99.90
4056;DHT22;2043;52.184;8.690;2023-10-13T07:12:39;17.20;99.90
4056;DHT22;2043;52.184;8.690;2023-10-13T07:15:10;17.20;99.90
4056;DHT22;2043;52.184;8.690;2023-10-13T07:17:42;17.20;99.90
4056;DHT22;2043;52.184;8.690;2023-10-13T07:20:11;17.20;99.90
4056;DHT22;2043;52.184;8.690;2023-10-13T07:22:42;17.20;99.90
4056;DHT22;2043;52.184;8.690;2023-10-13T07:25:22;17.20;99.90
4056;DHT22;2043;52.184;8.690;2023-10-13T07:27:53;17.20;99.90
4056;DHT22;2043;52.184;8.690;2023-10-13T07:30:20;17.20;99.90
4056;DHT22;2043;52.184;8.690;2023-10-13T07:32:53;17.30;99.90
4056;DHT22;2043;52.184;8.690;2023-10-13T07:35:24;17.40;99.90
4056;DHT22;2043;52.184;8.690;2023-10-13T07:37:51;17.50;99.90
4056;DHT22;2043;52.184;8.690;2023-10-13T07:40:21;17.50;99.90
4056;DHT22;2043;52.184;8.690;2023-10-13T07:42:55;17.50;99.90
4056;DHT22;2043;52.184;8.690;2023-10-13T07:45:30;17.60;99.90
4056;DHT22;2043;52.184;8.690;2023-10-13T07:48:07;17.50;99.90
4056;DHT22;2043;52.184;8.690;2023-10-13T07:50:39;17.50;99.90
4056;DHT22;2043;52.184;8.690;2023-10-13T07:53:06;17.60;99.90
4056;DHT22;2043;52.184;8.690;2023-10-13T07:55:52;17.60;99.90
4056;DHT22;2043;52.184;8.690;2023-10-13T07:58:23;17.70;99.90
4056;DHT22;2043;52.184;8.690;2023-10-13T08:00:53;17.70;99.90
4056;DHT22;2043;52.184;8.690;2023-10-13T08:03:34;17.70;99.90
4056;DHT22;2043;52.184;8.690;2023-10-13T08:06:14;17.70;99.90
4056;DHT22;2043;52.184;8.690;2023-10-13T08:08:48;17.80;99.90
4056;DHT22;2043;52.184;8.690;2023-10-13T08:11:20;17.80;99.90
4056;DHT22;2043;52.184;8.690;2023-10-13T08:14:01;17.80;99.90
4056;DHT22;2043;52.184;8.690;2023-10-13T08:16:56;17.80;99.90
4056;DHT22;2043;52.184;8.690;2023-10-13T08:19:28;17.80;99.90
4056;DHT22;2043;52.184;8.690;2023-10-13T08:21:59;17.90;99.90
4056;DHT22;2043;52.184;8.690;2023-10-13T08:24:47;17.90;99.90
4056;DHT22;2043;52.184;8.690;2023-10-13T08:27:16;17.90;99.90
4056;DHT22;2043;52.184;8.690;2023-10-13T08:30:03;18.00;99.90
4056;DHT22;2043;52.184;8.690;2023-10-13T08:32:49;18.00;99.90
4056;DHT22;2043;52.184;8.690;2023-10-13T08:35:25;18.00;99.90
4056;DHT22;2043;52.184;8.690;2023-10-13T08:38:02;18.00;99.90
4056;DHT22;2043;52.184;8.690;2023-10-13T08:40:59;18.00;99.90
4056;DHT22;2043;52.184;8.690;2023-10-13T08:43:46;18.10;99.90
4056;DHT22;2043;52.184;8.690;2023-10-13T08:46:20;18.20;99.90
4056;DHT22;2043;52.184;8.690;2023-10-13T08:48:59;18.30;99.90
4056;DHT22;2043;52.184;8.690;2023-10-13T08:51:44;18.50;99.90
4056;DHT22;2043;52.184;8.690;2023-10-13T08:54:33;18.50;99.90
4056;DHT22;2043;52.184;8.690;2023-10-13T08:57:05;18.70;99.90
4056;DHT22;2043;52.184;8.690;2023-10-13T08:59:46;18.80;99.90
4056;DHT22;2043;52.184;8.690;2023-10-13T09:02:23;18.90;99.90
4056;DHT22;2043;52.184;8.690;2023-10-13T09:05:09;18.90;99.90
4056;DHT22;2043;52.184;8.690;2023-10-13T09:07:56;19.10;99.90
4056;DHT22;2043;52.184;8.690;2023-10-13T09:10:35;19.10;99.90
4056;DHT22;2043;52.184;8.690;2023-10-13T09:13:12;19.50;99.90
4056;DHT22;2043;52.184;8.690;2023-10-13T09:15:47;19.40;99.90
4056;DHT22;2043;52.184;8.690;2023-10-13T09:18:29;19.40;99.90
4056;DHT22;2043;52.184;8.690;2023-10-13T09:21:09;19.70;99.90
4056;DHT22;2043;52.184;8.690;2023-10-13T09:23:55;20.40;99.90
4056;DHT22;2043;52.184;8.690;2023-10-13T09:26:41;20.90;99.90
4056;DHT22;2043;52.184;8.690;2023-10-13T09:29:18;21.30;99.90
4056;DHT22;2043;52.184;8.690;2023-10-13T09:31:59;21.80;99.90
4056;DHT22;2043;52.184;8.690;2023-10-13T09:34:27;21.80;99.90
4056;DHT22;2043;52.184;8.690;2023-10-13T09:36:59;22.40;99.90
4056;DHT22;2043;52.184;8.690;2023-10-13T09:39:29;22.30;99.90
4056;DHT22;2043;52.184;8.690;2023-10-13T09:41:57;22.20;99.90
4056;DHT22;2043;52.184;8.690;2023-10-13T09:44:27;21.90;99.90
4056;DHT22;2043;52.184;8.690;2023-10-13T09:47:01;20.90;99.90
4056;DHT22;2043;52.184;8.690;2023-10-13T09:49:39;20.80;99.90
4056;DHT22;2043;52.184;8.690;2023-10-13T09:52:18;20.70;99.90
4056;DHT22;2043;52.184;8.690;2023-10-13T09:55:26;20.50;99.90
4056;DHT22;2043;52.184;8.690;2023-10-13T09:58:00;20.50;99.90
4056;DHT22;2043;52.184;8.690;2023-10-13T10:00:42;20.50;99.90
4056;DHT22;2043;52.184;8.690;2023-10-13T10:03:09;20.70;99.90
4056;DHT22;2043;52.184;8.690;2023-10-13T10:06:03;20.80;99.90
4056;DHT22;2043;52.184;8.690;2023-10-13T10:08:33;21.20;99.90
4056;DHT22;2043;52.184;8.690;2023-10-13T10:14:23;21.90;99.90
4056;DHT22;2043;52.184;8.690;2023-10-13T10:17:06;22.00;98.70
4056;DHT22;2043;52.184;8.690;2023-10-13T10:19:51;22.30;98.10
4056;DHT22;2043;52.184;8.690;2023-10-13T10:22:29;22.30;97.90
4056;DHT22;2043;52.184;8.690;2023-10-13T10:25:06;22.20;97.60
4056;DHT22;2043;52.184;8.690;2023-10-13T10:27:34;22.10;97.20
4056;DHT22;2043;52.184;8.690;2023-10-13T10:30:01;22.10;97.20
4056;DHT22;2043;52.184;8.690;2023-10-13T10:32:37;22.00;97.60
4056;DHT22;2043;52.184;8.690;2023-10-13T10:35:08;22.30;97.40
4056;DHT22;2043;52.184;8.690;2023-10-13T10:37:42;22.30;97.40
4056;DHT22;2043;52.184;8.690;2023-10-13T10:40:19;22.90;95.80
4056;DHT22;2043;52.184;8.690;2023-10-13T10:43:21;23.20;94.40
4056;DHT22;2043;52.184;8.690;2023-10-13T10:45:59;23.20;94.50
4056;DHT22;2043;52.184;8.690;2023-10-13T10:48:27;23.90;93.20
4056;DHT22;2043;52.184;8.690;2023-10-13T10:50:59;24.00;93.10
4056;DHT22;2043;52.184;8.690;2023-10-13T10:53:36;24.40;92.00
4056;DHT22;2043;52.184;8.690;2023-10-13T10:56:13;24.30;90.90
4056;DHT22;2043;52.184;8.690;2023-10-13T10:58:47;24.20;91.20
4056;DHT22;2043;52.184;8.690;2023-10-13T11:01:15;24.10;91.60
4056;DHT22;2043;52.184;8.690;2023-10-13T11:03:58;24.30;91.20
4056;DHT22;2043;52.184;8.690;2023-10-13T11:06:26;23.90;91.40
4056;DHT22;2043;52.184;8.690;2023-10-13T11:09:06;23.30;93.10
4056;DHT22;2043;52.184;8.690;2023-10-13T11:11:46;23.10;93.00
4056;DHT22;2043;52.184;8.690;2023-10-13T11:14:29;23.10;93.10
4056;DHT22;2043;52.184;8.690;2023-10-13T11:16:57;23.40;93.00
4056;DHT22;2043;52.184;8.690;2023-10-13T11:19:38;23.40;92.70
4056;DHT22;2043;52.184;8.690;2023-10-13T11:22:15;22.80;94.10
4056;DHT22;2043;52.184;8.690;2023-10-13T11:25:04;22.80;94.10
4056;DHT22;2043;52.184;8.690;2023-10-13T11:27:39;22.80;94.00
4056;DHT22;2043;52.184;8.690;2023-10-13T11:30:18;23.40;91.90
4056;DHT22;2043;52.184;8.690;2023-10-13T11:33:05;23.40;92.00
4056;DHT22;2043;52.184;8.690;2023-10-13T11:35:37;23.20;91.70
4056;DHT22;2043;52.184;8.690;2023-10-13T11:38:26;23.40;91.50
4056;DHT22;2043;52.184;8.690;2023-10-13T11:41:04;23.20;92.10
4056;DHT22;2043;52.184;8.690;2023-10-13T11:43:36;23.40;91.00
4056;DHT22;2043;52.184;8.690;2023-10-13T11:46:24;23.30;90.70
4056;DHT22;2043;52.184;8.690;2023-10-13T11:49:08;23.10;90.70
4056;DHT22;2043;52.184;8.690;2023-10-13T11:51:49;23.20;90.70
4056;DHT22;2043;52.184;8.690;2023-10-13T11:54:20;23.50;90.50
4056;DHT22;2043;52.184;8.690;2023-10-13T11:56:49;23.90;89.00
4056;DHT22;2043;52.184;8.690;2023-10-13T11:59:16;23.90;88.80
4056;DHT22;2043;52.184;8.690;2023-10-13T12:01:50;23.80;88.80
4056;DHT22;2043;52.184;8.690;2023-10-13T12:04:37;23.60;89.80
4056;DHT22;2043;52.184;8.690;2023-10-13T12:07:10;23.40;90.50
4056;DHT22;2043;52.184;8.690;2023-10-13T12:09:49;23.10;89.90
4056;DHT22;2043;52.184;8.690;2023-10-13T12:12:25;23.10;89.80
4056;DHT22;2043;52.184;8.690;2023-10-13T12:14:53;23.10;89.90
4056;DHT22;2043;52.184;8.690;2023-10-13T12:17:25;23.30;90.00
4056;DHT22;2043;52.184;8.690;2023-10-13T12:19:55;23.40;90.10
4056;DHT22;2043;52.184;8.690;2023-10-13T12:22:24;24.10;88.00
4056;DHT22;2043;52.184;8.690;2023-10-13T12:24:56;25.20;86.20
4056;DHT22;2043;52.184;8.690;2023-10-13T12:27:22;24.70;86.80
4056;DHT22;2043;52.184;8.690;2023-10-13T12:30:02;24.70;86.80
4056;DHT22;2043;52.184;8.690;2023-10-13T12:32:34;24.40;88.00
4056;DHT22;2043;52.184;8.690;2023-10-13T12:35:02;24.40;88.20
4056;DHT22;2043;52.184;8.690;2023-10-13T12:37:32;24.10;88.10
4056;DHT22;2043;52.184;8.690;2023-10-13T12:40:19;24.10;88.40
4056;DHT22;2043;52.184;8.690;2023-10-13T12:43:05;23.80;88.50
4056;DHT22;2043;52.184;8.690;2023-10-13T12:45:51;23.40;89.30
4056;DHT22;2043;52.184;8.690;2023-10-13T12:48:37;23.40;89.40
4056;DHT22;2043;52.184;8.690;2023-10-13T12:51:25;23.60;89.40
4056;DHT22;2043;52.184;8.690;2023-10-13T12:53:58;23.60;89.40
4056;DHT22;2043;52.184;8.690;2023-10-13T12:56:43;23.60;89.10
4056;DHT22;2043;52.184;8.690;2023-10-13T12:59:10;23.50;89.50
4056;DHT22;2043;52.184;8.690;2023-10-13T13:01:41;23.60;89.70
4056;DHT22;2043;52.184;8.690;2023-10-13T13:04:10;23.70;89.80
4056;DHT22;2043;52.184;8.690;2023-10-13T13:06:48;23.80;89.50
4056;DHT22;2043;52.184;8.690;2023-10-13T13:09:16;24.30;88.20
4056;DHT22;2043;52.184;8.690;2023-10-13T13:11:53;24.80;87.20
4056;DHT22;2043;52.184;8.690;2023-10-13T13:14:25;24.80;86.70
4056;DHT22;2043;52.184;8.690;2023-10-13T13:17:00;24.80;86.80
4056;DHT22;2043;52.184;8.690;2023-10-13T13:19:34;24.40;87.40
4056;DHT22;2043;52.184;8.690;2023-10-13T13:22:03;24.30;87.70
4056;DHT22;2043;52.184;8.690;2023-10-13T13:24:31;24.30;88.10
4056;DHT22;2043;52.184;8.690;2023-10-13T13:26:58;24.50;87.60
4056;DHT22;2043;52.184;8.690;2023-10-13T13:29:31;24.50;87.70
4056;DHT22;2043;52.184;8.690;2023-10-13T13:31:58;24.90;86.50
4056;DHT22;2043;52.184;8.690;2023-10-13T13:34:27;25.00;86.50
4056;DHT22;2043;52.184;8.690;2023-10-13T13:36:54;25.20;86.20
4056;DHT22;2043;52.184;8.690;2023-10-13T13:39:21;25.20;85.50
4056;DHT22;2043;52.184;8.690;2023-10-13T13:41:57;25.30;85.20
4056;DHT22;2043;52.184;8.690;2023-10-13T13:44:27;25.50;85.10
4056;DHT22;2043;52.184;8.690;2023-10-13T13:46:56;25.60;85.40
4056;DHT22;2043;52.184;8.690;2023-10-13T13:49:23;25.80;84.00
4056;DHT22;2043;52.184;8.690;2023-10-13T13:52:07;25.60;83.40
4056;DHT22;2043;52.184;8.690;2023-10-13T13:54:34;25.30;83.50
4056;DHT22;2043;52.184;8.690;2023-10-13T13:57:01;25.20;83.40
4056;DHT22;2043;52.184;8.690;2023-10-13T13:59:27;25.20;83.30
4056;DHT22;2043;52.184;8.690;2023-10-13T14:02:01;25.30;83.70
4056;DHT22;2043;52.184;8.690;2023-10-13T14:04:33;25.40;82.30
4056;DHT22;2043;52.184;8.690;2023-10-13T14:07:00;25.40;82.30
4056;DHT22;2043;52.184;8.690;2023-10-13T14:09:32;25.50;82.70
4056;DHT22;2043;52.184;8.690;2023-10-13T14:11:59;25.50;82.50
4056;DHT22;2043;52.184;8.690;2023-10-13T14:14:45;25.30;81.90
4056;DHT22;2043;52.184;8.690;2023-10-13T14:17:25;25.50;82.50
4056;DHT22;2043;52.184;8.690;2023-10-13T14:20:02;25.30;82.40
4056;DHT22;2043;52.184;8.690;2023-10-13T14:22:41;25.20;82.40
4056;DHT22;2043;52.184;8.690;2023-10-13T14:25:10;25.10;82.80
4056;DHT22;2043;52.184;8.690;2023-10-13T14:27:43;25.10;82.70
4056;DHT22;2043;52.184;8.690;2023-10-13T14:30:11;25.10;81.90
4056;DHT22;2043;52.184;8.690;2023-10-13T14:32:46;25.10;81.80
4056;DHT22;2043;52.184;8.690;2023-10-13T14:35:13;25.00;82.40
4056;DHT22;2043;52.184;8.690;2023-10-13T14:37:42;25.00;82.50
4056;DHT22;2043;52.184;8.690;2023-10-13T14:40:09;25.00;82.10
4056;DHT22;2043;52.184;8.690;2023-10-13T14:42:39;24.90;82.50
4056;DHT22;2043;52.184;8.690;2023-10-13T14:45:07;24.80;82.40
4056;DHT22;2043;52.184;8.690;2023-10-13T14:47:44;24.70;82.30
4056;DHT22;2043;52.184;8.690;2023-10-13T14:50:15;24.60;82.00
4056;DHT22;2043;52.184;8.690;2023-10-13T14:52:48;24.30;82.90
4056;DHT22;2043;52.184;8.690;2023-10-13T14:55:16;24.30;83.00
4056;DHT22;2043;52.184;8.690;2023-10-13T14:57:49;24.10;83.00
4056;DHT22;2043;52.184;8.690;2023-10-13T15:00:18;24.10;83.00
4056;DHT22;2043;52.184;8.690;2023-10-13T15:02:52;23.90;83.90
4056;DHT22;2043;52.184;8.690;2023-10-13T15:05:20;23.90;83.70
4056;DHT22;2043;52.184;8.690;2023-10-13T15:07:47;23.90;83.50
4056;DHT22;2043;52.184;8.690;2023-10-13T15:10:14;23.80;83.50
4056;DHT22;2043;52.184;8.690;2023-10-13T15:12:42;23.80;83.60
4056;DHT22;2043;52.184;8.690;2023-10-13T15:15:11;23.60;83.30
4056;DHT22;2043;52.184;8.690;2023-10-13T15:17:43;23.60;83.30
4056;DHT22;2043;52.184;8.690;2023-10-13T15:20:11;23.60;83.90
4056;DHT22;2043;52.184;8.690;2023-10-13T15:22:46;23.60;83.90
4056;DHT22;2043;52.184;8.690;2023-10-13T15:25:20;23.50;84.10
4056;DHT22;2043;52.184;8.690;2023-10-13T15:27:48;23.50;84.10
4056;DHT22;2043;52.184;8.690;2023-10-13T15:30:25;23.50;84.10
4056;DHT22;2043;52.184;8.690;2023-10-13T15:33:09;23.50;83.70
4056;DHT22;2043;52.184;8.690;2023-10-13T15:35:39;23.40;83.90
4056;DHT22;2043;52.184;8.690;2023-10-13T15:38:05;23.40;84.00
4056;DHT22;2043;52.184;8.690;2023-10-13T15:40:33;23.30;84.20
4056;DHT22;2043;52.184;8.690;2023-10-13T15:43:00;23.30;84.30
4056;DHT22;2043;52.184;8.690;2023-10-13T15:45:31;23.30;84.50
4056;DHT22;2043;52.184;8.690;2023-10-13T15:48:05;23.30;84.40
4056;DHT22;2043;52.184;8.690;2023-10-13T15:50:37;23.20;84.20
4056;DHT22;2043;52.184;8.690;2023-10-13T15:53:09;23.20;84.70
4056;DHT22;2043;52.184;8.690;2023-10-13T15:55:40;23.10;84.80
4056;DHT22;2043;52.184;8.690;2023-10-13T15:58:07;23.10;84.70
4056;DHT22;2043;52.184;8.690;2023-10-13T16:00:37;23.10;84.70
4056;DHT22;2043;52.184;8.690;2023-10-13T16:03:05;23.00;84.80
4056;DHT22;2043;52.184;8.690;2023-10-13T16:05:39;23.00;85.20
4056;DHT22;2043;52.184;8.690;2023-10-13T16:08:09;23.00;85.20
4056;DHT22;2043;52.184;8.690;2023-10-13T16:10:40;22.90;84.90
4056;DHT22;2043;52.184;8.690;2023-10-13T16:13:08;22.90;84.90
4056;DHT22;2043;52.184;8.690;2023-10-13T16:15:43;22.90;85.00
4056;DHT22;2043;52.184;8.690;2023-10-13T16:18:10;22.90;84.90
4056;DHT22;2043;52.184;8.690;2023-10-13T16:20:38;22.80;85.00
4056;DHT22;2043;52.184;8.690;2023-10-13T16:23:06;22.80;85.00
4056;DHT22;2043;52.184;8.690;2023-10-13T16:28:00;22.70;85.50
4056;DHT22;2043;52.184;8.690;2023-10-13T16:30:28;22.70;85.40
4056;DHT22;2043;52.184;8.690;2023-10-13T16:32:55;22.60;85.60
4056;DHT22;2043;52.184;8.690;2023-10-13T16:35:22;22.60;85.60
4056;DHT22;2043;52.184;8.690;2023-10-13T16:37:49;22.60;85.60
4056;DHT22;2043;52.184;8.690;2023-10-13T16:40:20;22.60;85.90
4056;DHT22;2043;52.184;8.690;2023-10-13T16:42:48;22.50;86.20
4056;DHT22;2043;52.184;8.690;2023-10-13T16:45:16;22.50;86.30
4056;DHT22;2043;52.184;8.690;2023-10-13T16:47:50;22.50;86.20
4056;DHT22;2043;52.184;8.690;2023-10-13T16:50:21;22.40;86.70
4056;DHT22;2043;52.184;8.690;2023-10-13T16:52:48;22.40;87.10
4056;DHT22;2043;52.184;8.690;2023-10-13T16:55:17;22.20;87.00
4056;DHT22;2043;52.184;8.690;2023-10-13T16:57:47;22.30;86.80
4056;DHT22;2043;52.184;8.690;2023-10-13T17:00:19;22.20;86.70
4056;DHT22;2043;52.184;8.690;2023-10-13T17:02:56;22.20;86.80
4056;DHT22;2043;52.184;8.690;2023-10-13T17:05:23;22.20;86.60